Latest Weather Observations for Busselton Airport

IDW60801

Issued at 6:32 pm WST Thursday 26 May 2016 (issued every 30 minutes, with the page automatically refreshed every 10 minutes)

About weather observations | Map of weather stations | Latest weather observations for WA | Other Formats
Station Details ID: 009603 Name: BUSSELTON AERO Lat: -33.69 Lon: 115.40 Height: 16.3 m
Data from the previous 72 hours. | See also: Recent months at Busselton Airport
Date/Time
WST
Temp
°C
App
Temp
°C
Dew
Point
Rel
Hum
%
Delta-T
°C
Wind Press
QNH
hPa
Press
MSL
hPa
Rain
since 9 am
mm
Dir
 
Spd
km/h
Gust
km/h
Spd
kts
Gust
kts
26/06:30pm 9.6 7.9 5.8 77 1.7 S 4 7 2 4 1020.8 1020.8 0.2
26/06:00pm 11.0 10.0 5.5 69 2.5 CALM 0 0 0 0 1020.4 1020.4 0.2
26/05:30pm 13.9 12.9 5.5 57 4.0 CALM 0 0 0 0 1020.1 1020.1 0.2
26/05:00pm 15.6 13.1 4.9 49 5.0 WSW 7 9 4 5 1020.0 1020.0 0.2
26/04:30pm 16.5 13.8 5.8 49 5.2 WSW 9 15 5 8 1019.9 1019.9 0.2
26/04:00pm 16.7 12.2 4.1 43 5.9 SW 17 22 9 12 1019.6 1019.6 0.2
26/03:30pm 17.3 12.9 4.9 44 5.9 WSW 17 26 9 14 1019.2 1019.2 0.2
26/03:00pm 17.6 13.2 4.6 42 6.2 WSW 17 24 9 13 1018.9 1018.9 0.0
26/02:30pm 17.7 13.9 5.9 46 5.8 WSW 15 22 8 12 1018.9 1018.9 0.0
26/02:00pm 17.6 13.0 6.5 48 5.5 SW 20 26 11 14 1018.6 1018.6 0.0
26/01:30pm 17.5 13.6 7.3 51 5.1 WSW 17 22 9 12 1018.4 1018.4 0.0
26/01:00pm 17.4 13.3 8.0 54 4.8 SW 19 30 10 16 1018.1 1018.1 0.0
26/12:30pm 16.7 12.7 8.1 57 4.4 SW 19 28 10 15 1017.9 1017.9 0.0
26/12:00pm 17.2 13.2 9.1 59 4.2 SW 20 32 11 17 1018.1 1018.1 0.0
26/11:30am 16.6 12.4 9.8 64 3.6 SW 22 30 12 16 1018.2 1018.2 0.0
26/11:00am 16.9 14.8 9.6 62 3.8 WSW 11 15 6 8 1018.1 1018.1 0.0
26/10:30am 16.0 14.7 11.4 74 2.5 W 9 13 5 7 1017.8 1017.8 0.0
26/10:00am 14.6 13.6 12.3 86 1.2 NW 9 9 5 5 1017.6 1017.6 0.0
26/09:30am 13.6 14.5 13.0 96 0.3 CALM 0 0 0 0 1017.2 1017.2 0.0
26/09:00am 11.2 10.1 10.6 96 0.3 NE 7 11 4 6 1016.5 1016.5 1.4
26/08:30am 10.9 9.7 10.4 97 0.3 ESE 7 15 4 8 1016.3 1016.3 1.0
26/08:00am 8.8 7.2 8.2 96 0.3 ENE 6 9 3 5 1015.1 1015.1 1.0
26/07:30am 8.2 7.6 7.3 94 0.4 CALM 0 0 0 0 1014.7 1014.7 1.0
26/07:00am 7.6 5.0 6.2 91 0.6 ENE 9 11 5 6 1014.3 1014.3 1.0
26/06:30am 8.8 7.4 7.1 89 0.8 ESE 4 7 2 4 1013.5 1013.5 1.0
26/06:00am 10.0 7.9 8.3 89 0.8 SSW 9 11 5 6 1013.2 1013.2 1.0
26/05:30am 11.2 8.5 9.1 87 1.0 SSW 13 17 7 9 1012.9 1012.9 1.0
26/05:00am 12.8 10.7 11.0 89 0.9 WNW 13 15 7 8 1012.7 1012.7 1.0
26/04:30am 9.2 8.0 8.1 93 0.5 N 4 7 2 4 1012.3 1012.3 1.0
26/04:00am 9.7 8.0 8.3 91 0.7 N 7 9 4 5 1012.3 1012.3 1.0
26/03:30am 11.5 11.1 9.9 90 0.8 SSW 2 6 1 3 1012.0 1012.0 1.0
26/03:00am 11.8 10.3 10.4 91 0.7 SSW 9 15 5 8 1011.9 1011.9 1.0
26/02:30am 11.6 10.8 9.5 87 1.1 SE 4 7 2 4 1011.4 1011.4 1.0
26/02:00am 12.2 12.2 9.8 85 1.2 CALM 0 0 0 0 1011.3 1011.3 1.0
26/01:30am 12.3 11.1 9.7 84 1.3 NNW 6 7 3 4 1010.8 1010.8 1.0
26/01:00am 13.5 12.3 10.3 81 1.7 NW 7 9 4 5 1010.7 1010.7 1.0
26/12:30am 13.1 11.6 10.5 84 1.4 WSW 9 13 5 7 1011.1 1011.1 1.0
26/12:00am 13.5 11.4 11.2 86 1.2 WNW 13 22 7 12 1011.0 1011.0 1.0
 
Date/Time
WST
Temp
°C
App
Temp
°C
Dew
Point
Rel
Hum
%
Delta-T
°C
Wind Press
QNH
hPa
Press
MSL
hPa
Rain
since 9 am
mm
Dir
 
Spd
km/h
Gust
km/h
Spd
kts
Gust
kts
25/11:30pm 12.5 11.0 10.4 87 1.1 WNW 9 11 5 6 1011.0 1011.0 1.0
25/11:00pm 13.1 12.1 11.0 87 1.1 NW 7 11 4 6 1011.0 1011.0 1.0
25/10:30pm 13.1 12.4 11.3 89 1.0 WNW 6 9 3 5 1011.3 1011.3 1.0
25/10:00pm 12.9 11.9 11.0 88 1.0 WSW 7 9 4 5 1011.0 1011.0 1.0
25/09:30pm 13.4 11.7 11.1 86 1.2 W 11 15 6 8 1011.4 1011.4 1.0
25/09:00pm 14.6 12.1 9.8 73 2.5 WNW 13 22 7 12 1011.3 1011.3 0.8
25/08:30pm 13.9 11.8 9.9 77 2.1 WNW 11 13 6 7 1011.1 1011.1 0.8
25/08:00pm 14.0 12.0 10.0 77 2.1 WNW 11 15 6 8 1011.1 1011.1 0.8
25/07:30pm 14.0 12.0 10.0 77 2.1 WNW 11 15 6 8 1011.1 1011.1 0.8
25/07:00pm 14.4 12.0 10.0 75 2.3 WNW 13 19 7 10 1011.1 1011.1 0.8
25/06:30pm 14.2 12.0 10.8 80 1.8 WNW 13 24 7 13 1010.8 1010.8 0.8
25/06:00pm 12.8 12.0 10.9 88 1.0 NW 6 9 3 5 1010.3 1010.3 0.8
25/05:30pm 12.7 11.3 10.8 88 1.0 N 9 9 5 5 1010.2 1010.2 0.8
25/05:00pm 13.9 11.9 11.4 85 1.3 NNW 13 19 7 10 1010.2 1010.2 0.8
25/04:30pm 14.7 13.2 11.8 83 1.6 NNW 11 17 6 9 1010.2 1010.2 0.8
25/04:00pm 15.1 13.3 12.2 83 1.6 WNW 13 17 7 9 1010.1 1010.1 0.8
25/03:30pm 15.2 13.2 11.6 79 1.9 WNW 13 19 7 10 1010.0 1010.0 0.6
25/03:00pm 15.9 14.1 10.7 71 2.8 NW 11 17 6 9 1009.7 1009.7 0.6
25/02:30pm 16.7 14.5 10.8 68 3.2 WNW 13 20 7 11 1009.7 1009.7 0.6
25/02:00pm 15.6 11.6 10.6 72 2.6 WNW 22 30 12 16 1009.9 1009.9 0.6
25/01:30pm 16.1 13.0 11.5 74 2.5 W 19 33 10 18 1009.7 1009.7 0.6
25/01:00pm 15.7 14.0 12.5 81 1.8 NNW 13 17 7 9 1009.5 1009.5 0.6
25/12:30pm 13.9 11.9 11.6 86 1.2 N 13 20 7 11 1010.0 1010.0 0.4
25/12:00pm 15.2 13.5 11.2 77 2.1 NNW 11 15 6 8 1010.2 1010.2 0.0
25/11:30am 15.0 13.1 11.8 81 1.7 N 13 19 7 10 1010.5 1010.5 0.0
25/11:00am 16.0 14.6 11.0 72 2.7 N 9 13 5 7 1010.5 1010.5 0.0
25/10:30am 15.1 14.3 10.9 76 2.2 NE 6 9 3 5 1010.7 1010.7 0.0
25/10:00am 14.4 13.9 12.1 86 1.2 ENE 6 7 3 4 1010.9 1010.9 0.0
25/09:30am 13.1 12.3 11.7 91 0.7 NE 7 9 4 5 1011.0 1011.0 0.0
25/09:00am 12.8 12.3 12.5 98 0.2 E 7 9 4 5 1010.7 1010.7 1.6
25/08:30am 11.4 10.1 11.2 99 0.1 ENE 9 11 5 6 1010.7 1010.7 1.6
25/08:00am 10.9 9.8 10.7 99 0.1 ENE 7 9 4 5 1010.7 1010.7 1.6
25/07:30am 10.3 9.9 9.8 97 0.3 SE 2 6 1 3 1010.6 1010.6 1.6
25/07:00am 11.1 11.4 10.8 98 0.2 CALM 0 0 0 0 1010.3 1010.3 1.6
25/06:30am 10.5 8.8 10.0 97 0.3 NE 9 11 5 6 1010.3 1010.3 1.6
25/06:00am 10.6 8.6 10.1 97 0.3 SSE 11 13 6 7 1009.8 1009.8 1.6
25/05:30am 10.5 10.2 10.0 97 0.3 NW 2 11 1 6 1009.9 1009.9 1.6
25/05:00am 9.6 8.2 8.8 95 0.4 NE 6 9 3 5 1009.7 1009.7 0.8
25/04:30am 10.2 8.7 9.3 94 0.4 ENE 7 11 4 6 1009.5 1009.5 0.8
25/04:00am 10.2 7.9 9.1 93 0.5 ESE 11 13 6 7 1009.4 1009.4 0.8
25/03:30am 10.7 9.5 9.6 93 0.6 SSE 6 11 3 6 1009.7 1009.7 0.8
25/03:00am 10.5 9.0 9.3 92 0.6 NE 7 11 4 6 1009.8 1009.8 0.8
25/02:30am 10.0 8.5 8.3 89 0.8 ENE 6 9 3 5 1009.8 1009.8 0.8
25/02:00am 10.2 9.6 7.6 84 1.2 CALM 0 7 0 4 1009.4 1009.4 0.8
25/01:30am 11.4 10.0 9.5 88 1.0 SSW 7 11 4 6 1009.3 1009.3 0.8
25/01:00am 11.2 9.4 9.6 90 0.8 W 9 15 5 8 1009.7 1009.7 0.8
25/12:30am 10.2 9.3 7.8 85 1.2 NNW 2 6 1 3 1009.5 1009.5 0.8
25/12:00am 11.6 10.2 9.0 84 1.3 SW 6 11 3 6 1009.6 1009.6 0.8
 
Date/Time
WST
Temp
°C
App
Temp
°C
Dew
Point
Rel
Hum
%
Delta-T
°C
Wind Press
QNH
hPa
Press
MSL
hPa
Rain
since 9 am
mm
Dir
 
Spd
km/h
Gust
km/h
Spd
kts
Gust
kts
24/11:30pm 10.9 9.4 9.3 90 0.8 WSW 7 17 4 9 1010.0 1010.0 0.8
24/11:00pm 10.9 9.4 9.0 88 0.9 N 7 7 4 4 1009.8 1009.8 0.8
24/10:30pm 11.3 8.3 9.4 88 1.0 S 15 17 8 9 1009.6 1009.6 0.8
24/10:00pm 11.3 6.3 9.6 89 0.9 WSW 26 39 14 21 1010.5 1010.5 0.8
24/09:40pm 12.7 9.8 8.0 73 2.3 W 13 39 7 21 1010.3 1010.3 0.2
24/09:30pm 12.2 10.2 7.3 72 2.4 WSW 7 9 4 5 1009.6 1009.6 0.2
24/09:00pm 12.4 9.4 7.5 72 2.4 SW 13 19 7 10 1009.6 1009.6 0.2
24/08:30pm 12.6 9.6 7.9 73 2.3 WNW 13 17 7 9 1009.8 1009.8 0.2
24/08:00pm 12.6 9.7 8.1 74 2.2 W 13 20 7 11 1010.1 1010.1 0.2
24/07:30pm 10.5 8.1 6.8 78 1.7 WNW 9 9 5 5 1009.6 1009.6 0.2
24/07:00pm 12.7 11.0 7.6 71 2.5 WNW 6 7 3 4 1009.4 1009.4 0.2
24/06:30pm 13.4 11.2 8.0 70 2.7 WSW 9 13 5 7 1009.1 1009.1 0.2
24/06:00pm 12.9 10.6 7.6 70 2.6 WNW 9 11 5 6 1008.7 1008.7 0.2
24/05:30pm 13.7 11.4 7.5 66 3.0 WNW 9 13 5 7 1008.2 1008.2 0.2
24/05:00pm 14.6 11.7 6.7 59 3.8 WSW 11 15 6 8 1008.1 1008.1 0.2
24/04:30pm 15.4 12.1 6.4 55 4.4 W 13 20 7 11 1007.9 1007.9 0.2
24/04:00pm 15.5 11.3 5.7 52 4.7 WSW 17 26 9 14 1007.7 1007.7 0.2
24/03:30pm 16.3 11.6 5.9 50 5.0 WSW 20 30 11 16 1007.4 1007.4 0.2
24/03:00pm 16.8 11.6 5.7 48 5.4 WSW 22 33 12 18 1006.9 1006.9 0.2
24/02:30pm 16.6 11.1 6.1 50 5.1 SW 24 32 13 17 1006.6 1006.6 0.2
24/02:00pm 16.5 13.0 7.4 55 4.6 WSW 15 22 8 12 1006.3 1006.3 0.2
24/01:30pm 16.9 11.1 6.1 49 5.3 W 26 35 14 19 1006.1 1006.1 0.2
24/01:00pm 15.9 11.0 7.1 56 4.4 WSW 22 35 12 19 1006.1 1006.1 0.2
24/12:30pm 15.3 11.1 8.3 63 3.5 WSW 20 32 11 17 1006.3 1006.3 0.2
24/12:00pm 16.1 12.1 8.3 60 4.0 WSW 19 28 10 15 1006.3 1006.3 0.2
24/11:30am 15.0 11.0 8.9 67 3.1 W 20 32 11 17 1006.6 1006.6 0.2
24/11:00am 14.9 12.5 10.1 73 2.5 SW 13 19 7 10 1006.4 1006.4 0.2
24/10:30am 13.8 11.4 10.0 78 2.0 W 13 20 7 11 1006.5 1006.5 0.2
24/10:00am 13.4 9.5 9.6 78 1.9 WSW 20 39 11 21 1006.7 1006.7 0.2
24/09:30am 13.5 10.2 9.7 78 1.9 W 17 28 9 15 1005.9 1005.9 0.0
24/09:21am 13.8 9.0 9.0 73 2.4 W 24 33 13 18 1006.0 1006.0 0.0
24/09:00am 14.5 12.2 9.1 70 2.8 WSW 11 15 6 8 1005.3 1005.3 33.4
24/08:30am 14.7 10.5 8.2 65 3.3 WSW 20 30 11 16 1005.0 1005.0 33.4
24/08:00am 13.1 12.3 8.0 71 2.5 SSW 2 7 1 4 1004.1 1004.1 33.4
24/07:30am 13.2 11.4 7.9 70 2.6 SSW 7 11 4 6 1003.7 1003.7 33.4
24/07:00am 14.3 11.4 8.0 66 3.2 WSW 13 22 7 12 1003.0 1003.0 33.4
24/06:30am 14.9 10.1 5.7 54 4.4 W 20 32 11 17 1002.1 1002.1 33.4
24/06:00am 15.5 10.6 8.5 63 3.6 WSW 24 43 13 23 1001.6 1001.6 33.4
24/05:30am 15.8 11.8 10.3 70 2.9 WSW 22 32 12 17 1001.0 1001.0 33.4
24/05:00am 16.2 11.9 10.7 70 2.9 WSW 24 37 13 20 1000.5 1000.5 33.4
24/04:30am 15.9 13.3 14.8 93 0.6 W 22 37 12 20 999.9 999.9 33.4
24/04:00am 15.5 12.8 15.5 100 0.0 WSW 24 39 13 21 999.2 999.2 33.4
24/03:30am 15.1 13.2 15.1 100 0.0 W 19 26 10 14 998.8 998.8 33.4
24/03:00am 14.6 10.8 14.6 100 0.0 WNW 28 39 15 21 998.4 998.4 33.0
24/02:50am 14.8 8.1 14.6 99 0.1 NW 43 65 23 35 999.3 999.3 32.0
24/02:47am 16.5 10.5 16.5 100 0.0 NNW 43 65 23 35 999.0 999.0 27.2
24/02:45am 17.6 12.5 17.6 100 0.0 NNW 41 59 22 32 997.1 997.1 26.2
24/02:30am 17.4 12.2 17.4 100 0.0 NNW 41 57 22 31 997.3 997.3 25.6
24/02:00am 17.3 11.6 17.3 100 0.0 NNW 43 69 23 37 997.9 997.9 24.0
24/01:30am 16.8 11.3 16.8 100 0.0 N 41 59 22 32 998.4 998.4 23.4
24/01:05am 16.8 11.2 16.6 99 0.1 NNW 41 61 22 33 999.1 999.1 22.6
24/01:00am 16.7 10.5 16.5 99 0.1 NNW 44 69 24 37 999.1 999.1 22.6
24/12:56am 16.6 9.6 16.4 99 0.1 NNW 48 72 26 39 999.1 999.1 22.6
24/12:31am 16.3 7.8 16.3 100 0.0 NNW 56 82 30 44 999.6 999.6 21.8
24/12:30am 16.4 8.3 16.4 100 0.0 NNW 54 82 29 44 999.5 999.5 21.8
24/12:28am 16.7 9.5 16.7 100 0.0 NNW 50 82 27 44 999.4 999.4 21.4
24/12:02am 16.5 11.2 16.3 99 0.1 N 39 61 21 33 1000.0 1000.0 15.4
24/12:00am 16.4 11.1 16.2 99 0.1 N 39 54 21 29 1000.1 1000.1 15.2
 
Date/Time
WST
Temp
°C
App
Temp
°C
Dew
Point
Rel
Hum
%
Delta-T
°C
Wind Press
QNH
hPa
Press
MSL
hPa
Rain
since 9 am
mm
Dir
 
Spd
km/h
Gust
km/h
Spd
kts
Gust
kts
23/11:30pm 16.1 8.8 15.6 97 0.3 N 48 70 26 38 1001.0 1001.0 12.0
23/11:24pm 16.9 11.0 16.7 99 0.1 N 43 70 23 38 1000.8 1000.8 11.6
23/11:00pm 17.3 11.4 16.7 96 0.4 N 43 59 23 32 1001.8 1001.8 9.2
23/10:30pm 17.2 11.5 15.2 88 1.2 N 39 56 21 30 1002.0 1002.0 7.4
23/10:15pm 17.1 11.2 14.7 86 1.4 N 39 57 21 31 1002.7 1002.7 6.6
23/10:00pm 17.2 11.8 15.0 87 1.3 N 37 50 20 27 1003.4 1003.4 6.2
23/09:30pm 17.2 11.4 15.0 87 1.3 N 39 52 21 28 1003.8 1003.8 4.8
23/09:00pm 16.8 11.5 15.2 90 0.9 N 37 48 20 26 1003.8 1003.8 3.4
23/08:37pm 16.9 11.4 14.7 87 1.3 N 37 56 20 30 1004.2 1004.2 2.2
23/08:30pm 16.9 11.3 14.5 86 1.4 N 37 50 20 27 1004.3 1004.3 1.8
23/08:00pm 17.2 11.4 13.9 81 1.9 N 37 52 20 28 1004.9 1004.9 0.8
23/07:30pm 17.8 10.9 12.9 73 2.7 N 41 54 22 29 1006.1 1006.1 0.6
23/07:10pm 18.1 11.9 12.5 70 3.1 N 37 56 20 30 1006.9 1006.9 0.6
23/07:00pm 18.0 11.0 12.5 70 3.1 N 41 54 22 29 1006.9 1006.9 0.6

Other Formats:

Comma delimited format used in spreadsheet applications
http://www.bom.gov.au/fwo/IDW60801/IDW60801.95611.axf

JavaScript Object Notation format (JSON) in row-major order
http://www.bom.gov.au/fwo/IDW60801/IDW60801.95611.json